Time;durP1;ratioP1;P1;durP2;ratioP2;P2;SDS_P1;SDS_P2;PMS_P1;PMS_P2;Temp;Humidity;BMP_temperature;BMP_pressure;BME280_temperature;BME280_humidity;BME280_pressure;Samples;Min_cycle;Max_cycle;Signal;HPM_P1;HPM_P2
2022/01/04 00:01:13;;;;;;;18.63;4.22;;;7.70;99.90;;;;;;5032364;28;20053;-62
2022/01/04 00:03:40;;;;;;;22.55;5.45;;;7.70;99.90;;;;;;5030881;28;20042;-62
2022/01/04 00:06:07;;;;;;;19.50;4.88;;;7.70;99.90;;;;;;5032431;28;20049;-62
2022/01/04 00:08:33;;;;;;;18.90;4.45;;;7.70;99.90;;;;;;5031521;28;20053;-61
2022/01/04 00:11:08;;;;;;;19.65;4.90;;;7.70;99.90;;;;;;5032333;28;20133;-61
2022/01/04 00:13:34;;;;;;;19.23;4.68;;;7.60;99.90;;;;;;5032058;28;20398;-62
2022/01/04 00:16:02;;;;;;;21.33;4.80;;;7.60;99.90;;;;;;5031061;28;20119;-62
2022/01/04 00:18:28;;;;;;;20.10;5.03;;;7.60;99.90;;;;;;5032126;28;20117;-62
2022/01/04 00:20:54;;;;;;;21.25;5.20;;;7.60;99.90;;;;;;5030572;28;20069;-61
2022/01/04 00:23:19;;;;;;;26.63;5.45;;;7.60;99.90;;;;;;5032146;28;20111;-61
2022/01/04 00:25:46;;;;;;;20.17;5.60;;;7.60;99.90;;;;;;5031918;28;20049;-61
2022/01/04 00:28:11;;;;;;;29.85;6.18;;;7.60;99.90;;;;;;5030920;28;20123;-62
2022/01/04 00:30:38;;;;;;;23.85;6.32;;;7.50;99.90;;;;;;5030371;28;20045;-62
2022/01/04 00:33:06;;;;;;;24.38;5.32;;;7.50;99.90;;;;;;5031993;28;20051;-62
2022/01/04 00:35:31;;;;;;;20.00;4.72;;;7.50;99.90;;;;;;5030523;28;20049;-61
2022/01/04 00:37:57;;;;;;;25.48;4.50;;;7.50;99.90;;;;;;5031635;28;20056;-61
2022/01/04 00:40:24;;;;;;;20.88;4.43;;;7.40;99.90;;;;;;5031872;28;20057;-60
2022/01/04 00:42:51;;;;;;;21.23;5.07;;;7.40;99.90;;;;;;5031574;28;20050;-61
2022/01/04 00:45:18;;;;;;;20.98;4.55;;;7.40;99.90;;;;;;5032130;28;20049;-61
2022/01/04 00:50:19;;;;;;;21.08;4.80;;;7.50;99.90;;;;;;5030684;28;20045;-61
2022/01/04 00:52:45;;;;;;;16.38;4.82;;;7.50;99.90;;;;;;5031338;28;20132;-61
2022/01/04 00:55:11;;;;;;;16.50;4.88;;;7.50;99.90;;;;;;5030579;28;20053;-61
2022/01/04 00:57:37;;;;;;;20.10;5.28;;;7.40;99.90;;;;;;5031671;28;20549;-63
2022/01/04 01:00:05;;;;;;;18.02;4.88;;;7.40;99.90;;;;;;5031716;28;20191;-61
2022/01/04 01:02:30;;;;;;;21.17;5.10;;;7.40;99.90;;;;;;5031349;28;20046;-61
2022/01/04 01:04:56;;;;;;;22.98;5.80;;;7.50;99.90;;;;;;5030275;28;20049;-62
2022/01/04 01:07:22;;;;;;;30.05;6.10;;;7.40;99.90;;;;;;5031652;28;20063;-62
2022/01/04 01:10:35;;;;;;;27.40;6.22;;;7.40;99.90;;;;;;5031351;28;20049;-61
2022/01/04 01:12:40;;;;;;;19.25;6.10;;;7.40;99.90;;;;;;5027779;28;20049;-62
2022/01/04 01:15:07;;;;;;;24.35;5.45;;;7.40;99.90;;;;;;5030203;28;20132;-61
2022/01/04 01:17:33;;;;;;;22.40;6.13;;;7.40;99.90;;;;;;5031441;28;20457;-61
2022/01/04 01:20:00;;;;;;;27.58;6.43;;;7.40;99.90;;;;;;5031033;28;20042;-61
2022/01/04 01:22:26;;;;;;;21.58;6.65;;;7.40;99.90;;;;;;5030368;28;20099;-62
2022/01/04 01:24:52;;;;;;;29.40;6.45;;;7.50;99.90;;;;;;5031296;28;20600;-62
2022/01/04 01:27:18;;;;;;;24.10;6.63;;;7.50;99.90;;;;;;5030154;28;20118;-62
2022/01/04 01:29:44;;;;;;;20.08;6.30;;;7.50;99.90;;;;;;5029971;28;20042;-62
2022/01/04 01:32:10;;;;;;;23.23;6.60;;;7.50;99.90;;;;;;5035414;28;20049;-62
2022/01/04 01:34:36;;;;;;;22.45;6.75;;;7.50;99.90;;;;;;5035175;28;20107;-62
2022/01/04 01:37:02;;;;;;;27.13;7.65;;;7.50;99.90;;;;;;5035268;28;20244;-61
2022/01/04 01:39:28;;;;;;;24.60;6.32;;;7.60;99.90;;;;;;5034006;28;20096;-62
2022/01/04 01:41:54;;;;;;;25.45;7.90;;;7.60;99.90;;;;;;5034787;28;20045;-62
2022/01/04 01:44:21;;;;;;;27.00;7.00;;;7.60;99.90;;;;;;5034615;28;20409;-62
2022/01/04 01:46:46;;;;;;;18.65;6.20;;;7.60;99.90;;;;;;5034777;28;20128;-61
2022/01/04 01:49:12;;;;;;;23.10;5.93;;;7.60;99.90;;;;;;5033790;28;20098;-62
2022/01/04 01:51:38;;;;;;;28.02;6.40;;;7.60;99.90;;;;;;5017328;28;20079;-61
2022/01/04 01:54:04;;;;;;;35.70;7.00;;;7.60;99.90;;;;;;5000678;28;20037;-62
2022/01/04 01:56:29;;;;;;;22.90;6.75;;;7.60;99.90;;;;;;5034963;28;20072;-61
2022/01/04 01:58:56;;;;;;;26.25;6.72;;;7.60;99.90;;;;;;5034528;28;20045;-62
2022/01/04 02:01:23;;;;;;;22.92;6.22;;;7.70;99.90;;;;;;5034705;28;20057;-62
2022/01/04 02:03:49;;;;;;;24.73;6.63;;;7.60;99.90;;;;;;5033235;28;20087;-62
2022/01/04 02:06:15;;;;;;;18.08;5.75;;;7.70;99.90;;;;;;5033756;28;20057;-62
2022/01/04 02:08:41;;;;;;;28.20;7.00;;;7.70;99.90;;;;;;5034820;28;20045;-62
2022/01/04 02:11:08;;;;;;;23.30;6.53;;;7.70;99.90;;;;;;5034075;28;20418;-62
2022/01/04 02:13:34;;;;;;;28.98;6.30;;;7.70;99.90;;;;;;5033393;28;20042;-61
2022/01/04 02:16:00;;;;;;;24.05;5.65;;;7.60;99.90;;;;;;5034137;28;20100;-61
2022/01/04 02:18:26;;;;;;;23.75;7.32;;;7.60;99.90;;;;;;5034527;28;20467;-61
2022/01/04 02:20:51;;;;;;;24.40;6.68;;;7.60;99.90;;;;;;5032815;28;20099;-61
2022/01/04 02:23:17;;;;;;;25.35;6.60;;;7.60;99.90;;;;;;5033284;28;20112;-61
2022/01/04 02:25:43;;;;;;;25.02;7.03;;;7.60;99.90;;;;;;5033307;28;20045;-61
2022/01/04 02:28:09;;;;;;;25.15;7.05;;;7.60;99.90;;;;;;5034019;28;20392;-61
2022/01/04 02:30:34;;;;;;;21.02;5.13;;;7.60;99.90;;;;;;5034077;28;20081;-61
2022/01/04 02:33:00;;;;;;;22.15;5.75;;;7.60;99.90;;;;;;5032833;28;20531;-63
2022/01/04 02:35:31;;;;;;;32.47;6.45;;;7.60;99.90;;;;;;5032900;28;20399;-60
2022/01/04 02:37:58;;;;;;;27.35;5.93;;;7.60;99.90;;;;;;5033811;28;20056;-61
2022/01/04 02:40:25;;;;;;;26.92;4.93;;;7.60;99.90;;;;;;5033489;28;20494;-61
2022/01/04 02:42:52;;;;;;;30.50;5.88;;;7.60;99.90;;;;;;5033616;28;20518;-62
2022/01/04 02:45:17;;;;;;;23.23;5.95;;;7.60;99.90;;;;;;5033649;28;20061;-62
2022/01/04 02:47:43;;;;;;;23.75;6.22;;;7.60;99.90;;;;;;5032534;28;20134;-62
2022/01/04 02:50:10;;;;;;;21.23;6.60;;;7.60;99.90;;;;;;5033451;28;20041;-62
2022/01/04 02:52:36;;;;;;;29.35;6.45;;;7.70;99.90;;;;;;5033666;28;20049;-61
2022/01/04 02:55:07;;;;;;;27.35;6.40;;;7.60;99.90;;;;;;5033383;28;20077;-61
2022/01/04 02:57:33;;;;;;;23.65;6.40;;;7.60;99.90;;;;;;5032645;28;20132;-63
2022/01/04 02:59:59;;;;;;;18.45;4.93;;;7.60;99.90;;;;;;5032024;28;20395;-62
2022/01/04 03:02:26;;;;;;;23.27;6.82;;;7.60;99.90;;;;;;5032266;28;20045;-61
2022/01/04 03:04:51;;;;;;;26.73;6.63;;;7.60;99.90;;;;;;5033198;28;20549;-61
2022/01/04 03:07:17;;;;;;;26.15;6.93;;;7.60;99.90;;;;;;5033126;28;20053;-61
2022/01/04 03:09:43;;;;;;;18.58;5.97;;;7.60;99.90;;;;;;5033221;28;20522;-61
2022/01/04 03:12:09;;;;;;;29.45;5.88;;;7.60;99.90;;;;;;5033059;28;20081;-61
2022/01/04 03:14:35;;;;;;;32.05;6.25;;;7.70;99.90;;;;;;5031859;28;20072;-61
2022/01/04 03:17:01;;;;;;;30.27;7.40;;;7.70;99.90;;;;;;5033056;28;20049;-60
2022/01/04 03:19:27;;;;;;;23.83;6.10;;;7.70;99.90;;;;;;5033186;28;20084;-61
2022/01/04 03:21:53;;;;;;;34.28;7.25;;;7.70;99.90;;;;;;5033524;28;20095;-61
2022/01/04 03:24:18;;;;;;;26.92;5.90;;;7.70;99.90;;;;;;5032565;28;20129;-61
2022/01/04 03:26:44;;;;;;;19.92;5.43;;;7.70;99.90;;;;;;5032939;28;20101;-61
2022/01/04 03:29:13;;;;;;;18.52;6.35;;;7.70;99.90;;;;;;5032636;28;20394;-61
2022/01/04 03:31:40;;;;;;;25.63;7.20;;;7.80;99.90;;;;;;5033073;28;20449;-62
2022/01/04 03:34:06;;;;;;;27.35;6.82;;;7.80;99.90;;;;;;5031435;28;20380;-61
2022/01/04 03:36:33;;;;;;;26.60;6.18;;;7.70;99.90;;;;;;5032984;28;20124;-62
2022/01/04 03:38:59;;;;;;;20.92;6.03;;;7.70;99.90;;;;;;5032976;28;20103;-62
2022/01/04 03:41:26;;;;;;;18.98;6.30;;;7.80;99.90;;;;;;5031627;28;20053;-62
2022/01/04 03:43:54;;;;;;;21.92;5.88;;;7.80;99.90;;;;;;5032727;28;20053;-62
2022/01/04 03:46:20;;;;;;;32.30;7.18;;;7.80;99.90;;;;;;5032133;28;20219;-62
2022/01/04 03:48:46;;;;;;;18.88;5.72;;;7.80;99.90;;;;;;5031830;28;20053;-62
2022/01/04 03:51:12;;;;;;;26.95;6.55;;;7.80;99.90;;;;;;5032279;28;20517;-62
2022/01/04 03:53:38;;;;;;;33.50;6.70;;;7.80;99.90;;;;;;5030758;28;20088;-62
2022/01/04 03:56:04;;;;;;;29.00;6.32;;;7.80;99.90;;;;;;5031349;28;20060;-62
2022/01/04 03:58:30;;;;;;;18.77;6.15;;;7.80;99.90;;;;;;5031530;28;20132;-62
2022/01/04 04:00:56;;;;;;;26.70;6.05;;;7.80;99.90;;;;;;5032536;28;20137;-62
2022/01/04 04:03:22;;;;;;;27.00;6.88;;;7.80;99.90;;;;;;5032138;28;20049;-62
2022/01/04 04:05:49;;;;;;;23.98;6.50;;;7.90;99.90;;;;;;5031325;28;20507;-62
2022/01/04 04:08:15;;;;;;;22.30;5.55;;;7.80;99.90;;;;;;5014892;28;20061;-62
2022/01/04 04:10:41;;;;;;;20.83;6.05;;;7.80;99.90;;;;;;5032364;28;20065;-62
2022/01/04 04:13:07;;;;;;;25.85;6.15;;;7.80;99.90;;;;;;5032057;28;20045;-62
2022/01/04 04:15:33;;;;;;;22.98;6.15;;;7.80;99.90;;;;;;5030993;28;20486;-62
2022/01/04 04:17:58;;;;;;;27.48;6.15;;;7.80;99.90;;;;;;5032315;28;20082;-60
2022/01/04 04:20:24;;;;;;;24.38;6.70;;;7.80;99.90;;;;;;5031737;28;20079;-61
2022/01/04 04:22:50;;;;;;;23.58;6.00;;;7.80;99.90;;;;;;5032104;28;20049;-62
2022/01/04 04:25:16;;;;;;;28.00;6.20;;;7.80;99.90;;;;;;5030494;28;20053;-62
2022/01/04 04:27:42;;;;;;;21.15;5.72;;;7.80;99.90;;;;;;5030652;28;20128;-62
2022/01/04 04:30:09;;;;;;;23.65;6.20;;;7.80;99.90;;;;;;5030749;28;20076;-61
2022/01/04 04:32:35;;;;;;;21.23;6.97;;;7.80;99.90;;;;;;5032054;28;20045;-62
2022/01/04 04:35:01;;;;;;;28.38;6.68;;;7.80;99.90;;;;;;5031935;28;20048;-62
2022/01/04 04:37:27;;;;;;;24.55;6.82;;;7.80;99.90;;;;;;5031357;28;20136;-62
2022/01/04 04:39:52;;;;;;;23.13;7.22;;;7.80;99.90;;;;;;5031888;28;20053;-62
2022/01/04 04:42:18;;;;;;;19.08;6.10;;;7.80;99.90;;;;;;5031796;28;20049;-62
2022/01/04 04:44:45;;;;;;;24.80;6.75;;;7.80;99.90;;;;;;5031677;28;20053;-62
2022/01/04 04:47:11;;;;;;;28.52;7.25;;;7.80;99.90;;;;;;5031487;28;20484;-62
2022/01/04 04:49:37;;;;;;;21.20;6.50;;;7.70;99.90;;;;;;5030663;28;20403;-62
2022/01/04 04:52:03;;;;;;;30.02;7.05;;;7.70;99.90;;;;;;5031666;28;20053;-62
2022/01/04 04:54:29;;;;;;;24.48;6.70;;;7.70;99.90;;;;;;5029817;28;20053;-62
2022/01/04 04:56:55;;;;;;;19.95;7.80;;;7.70;99.90;;;;;;5031715;28;20053;-62
2022/01/04 04:59:21;;;;;;;26.35;7.15;;;7.70;99.90;;;;;;5031356;28;20347;-62
2022/01/04 05:01:46;;;;;;;24.48;7.18;;;7.80;99.90;;;;;;5031724;28;20045;-62
2022/01/04 05:04:12;;;;;;;24.27;7.25;;;7.70;99.90;;;;;;5031271;28;20057;-62
2022/01/04 05:06:38;;;;;;;22.17;6.43;;;7.80;99.90;;;;;;5017602;28;20072;-62
2022/01/04 05:09:04;;;;;;;24.17;8.18;;;7.70;99.90;;;;;;5035496;28;20128;-62
2022/01/04 05:11:29;;;;;;;22.60;6.90;;;7.70;99.90;;;;;;5035445;28;20045;-62
2022/01/04 05:13:55;;;;;;;24.40;7.38;;;7.80;99.90;;;;;;5034314;28;20075;-62
2022/01/04 05:16:21;;;;;;;27.73;7.68;;;7.70;99.90;;;;;;5035453;28;20136;-62
2022/01/04 05:18:47;;;;;;;27.15;8.23;;;7.80;99.90;;;;;;5035622;28;20371;-62
2022/01/04 05:21:13;;;;;;;26.38;7.68;;;7.80;99.90;;;;;;5034204;28;20045;-61
2022/01/04 05:23:38;;;;;;;30.30;8.20;;;7.80;99.90;;;;;;5035444;28;20045;-61
2022/01/04 05:26:04;;;;;;;21.83;7.97;;;7.80;99.90;;;;;;5035336;28;20542;-61
2022/01/04 05:28:30;;;;;;;22.95;8.50;;;7.80;99.90;;;;;;5034746;28;20391;-62
2022/01/04 05:30:55;;;;;;;26.02;7.93;;;7.80;99.90;;;;;;5017642;28;20095;-62
2022/01/04 05:33:21;;;;;;;25.58;8.40;;;7.80;99.90;;;;;;5035073;28;20045;-62
2022/01/04 05:35:48;;;;;;;29.42;9.20;;;7.80;99.90;;;;;;5035424;28;20050;-62
2022/01/04 05:38:14;;;;;;;26.75;9.25;;;7.80;99.90;;;;;;5017410;28;20060;-63
2022/01/04 05:40:40;;;;;;;21.45;7.13;;;7.70;99.90;;;;;;5035216;28;20041;-62
2022/01/04 05:43:06;;;;;;;24.50;8.15;;;7.70;99.90;;;;;;5034028;28;20046;-62
2022/01/04 05:45:32;;;;;;;25.67;8.52;;;7.80;99.90;;;;;;5034314;28;20687;-61
2022/01/04 05:47:58;;;;;;;23.15;8.73;;;7.70;99.90;;;;;;5034665;28;20085;-62
2022/01/04 05:50:24;;;;;;;27.70;8.68;;;7.70;99.90;;;;;;5017215;28;20060;-62
2022/01/04 05:52:50;;;;;;;30.02;8.55;;;7.70;99.90;;;;;;5033685;28;20045;-62
2022/01/04 05:55:16;;;;;;;25.02;8.20;;;7.70;99.90;;;;;;5034725;28;20042;-64
2022/01/04 05:57:41;;;;;;;21.67;8.13;;;7.60;99.90;;;;;;5017311;28;20065;-61
2022/01/04 06:00:08;;;;;;;22.17;7.20;;;7.60;99.90;;;;;;5034898;28;20132;-61
2022/01/04 06:02:34;;;;;;;25.33;9.10;;;7.60;99.90;;;;;;5034239;28;20053;-62
2022/01/04 06:05:00;;;;;;;25.98;8.75;;;7.60;99.90;;;;;;5033399;28;20042;-61
2022/01/04 06:07:25;;;;;;;36.08;10.75;;;7.60;99.90;;;;;;5032960;28;20095;-61
2022/01/04 06:09:53;;;;;;;25.58;9.63;;;7.60;99.90;;;;;;5033372;28;20048;-61
2022/01/04 06:14:57;;;;;;;25.27;9.32;;;7.70;99.90;;;;;;5034557;28;20450;-61
2022/01/04 06:17:27;;;;;;;18.25;7.85;;;7.60;99.90;;;;;;5033756;28;20065;-62
2022/01/04 06:19:55;;;;;;;29.25;9.27;;;7.60;99.90;;;;;;5034763;28;20298;-62
2022/01/04 06:22:21;;;;;;;20.80;8.15;;;7.60;99.90;;;;;;5034057;28;20050;-61
2022/01/04 06:24:47;;;;;;;24.00;8.45;;;7.60;99.90;;;;;;5034412;28;20042;-62
2022/01/04 06:27:13;;;;;;;22.42;8.93;;;7.60;99.90;;;;;;5034231;28;20383;-62
2022/01/04 06:29:40;;;;;;;28.35;8.98;;;7.70;99.90;;;;;;5032738;28;20065;-61
2022/01/04 06:32:07;;;;;;;24.48;8.30;;;7.70;99.90;;;;;;5034272;28;20041;-62
2022/01/04 06:34:34;;;;;;;24.50;8.32;;;7.70;99.90;;;;;;5033805;28;20053;-61
2022/01/04 06:36:59;;;;;;;26.63;8.00;;;7.70;99.90;;;;;;5016333;28;20054;-62
2022/01/04 06:39:26;;;;;;;25.95;8.25;;;7.70;99.90;;;;;;5033588;28;20050;-63
2022/01/04 06:41:51;;;;;;;26.50;8.07;;;7.70;99.90;;;;;;5034077;28;20057;-62
2022/01/04 06:44:17;;;;;;;24.48;7.93;;;7.90;99.90;;;;;;5016389;28;20129;-61
2022/01/04 06:46:45;;;;;;;21.58;7.30;;;7.70;99.90;;;;;;5015974;28;20057;-62
2022/01/04 06:49:15;;;;;;;26.98;8.00;;;7.80;99.90;;;;;;5032683;28;20045;-62
2022/01/04 06:51:42;;;;;;;25.65;6.68;;;7.80;99.90;;;;;;5033616;28;20400;-61
2022/01/04 06:54:10;;;;;;;22.27;6.70;;;7.80;99.90;;;;;;5033761;28;20125;-62
2022/01/04 06:56:36;;;;;;;28.75;7.68;;;7.80;99.90;;;;;;5033507;28;20387;-62
2022/01/04 06:59:03;;;;;;;19.75;5.75;;;7.80;99.90;;;;;;5033739;28;20434;-61
2022/01/04 07:01:29;;;;;;;23.25;6.28;;;7.70;99.90;;;;;;5033216;28;20049;-62
2022/01/04 07:03:54;;;;;;;19.98;6.82;;;7.70;99.90;;;;;;5032123;28;20045;-62
2022/01/04 07:06:20;;;;;;;30.85;6.57;;;7.70;99.90;;;;;;5033620;28;20045;-62
2022/01/04 07:08:46;;;;;;;17.50;5.25;;;7.70;99.90;;;;;;5032820;28;20049;-62
2022/01/04 07:11:11;;;;;;;20.75;6.13;;;7.70;99.90;;;;;;5015000;28;20053;-63
2022/01/04 07:13:37;;;;;;;19.90;5.32;;;7.70;99.90;;;;;;5032833;28;20059;-63
2022/01/04 07:16:03;;;;;;;17.15;4.72;;;7.70;99.90;;;;;;5033496;28;20081;-63
2022/01/04 07:18:29;;;;;;;25.67;5.70;;;7.70;99.90;;;;;;5033151;28;20553;-63
2022/01/04 07:20:54;;;;;;;19.08;5.50;;;7.60;99.90;;;;;;5032112;28;20395;-63
2022/01/04 07:23:22;;;;;;;29.77;6.00;;;7.70;99.90;;;;;;5031909;28;20056;-64
2022/01/04 07:25:48;;;;;;;20.60;5.80;;;7.70;99.90;;;;;;5031899;28;20088;-63
2022/01/04 07:28:14;;;;;;;25.63;5.55;;;7.70;99.90;;;;;;5032405;28;20080;-61
2022/01/04 07:30:39;;;;;;;10.85;4.53;;;7.70;99.90;;;;;;5033139;28;20391;-61
2022/01/04 07:33:05;;;;;;;18.80;5.53;;;7.70;99.90;;;;;;5031534;28;20071;-63
2022/01/04 07:35:31;;;;;;;17.27;5.30;;;7.70;99.90;;;;;;5031185;28;20048;-61
2022/01/04 07:37:57;;;;;;;17.80;5.57;;;7.70;99.90;;;;;;5033025;28;20106;-62
2022/01/04 07:40:23;;;;;;;15.38;5.78;;;7.70;99.90;;;;;;5031865;28;20136;-63
2022/01/04 07:42:48;;;;;;;20.20;5.93;;;7.70;99.90;;;;;;5032315;28;20114;-62
2022/01/04 07:45:14;;;;;;;21.70;5.63;;;7.70;99.90;;;;;;5031137;28;20056;-62
2022/01/04 07:47:43;;;;;;;20.15;5.65;;;7.70;99.90;;;;;;5031267;28;20187;-65
2022/01/04 07:50:11;;;;;;;16.67;5.65;;;7.70;99.90;;;;;;5031627;28;20045;-62
2022/01/04 07:52:36;;;;;;;23.73;5.78;;;7.80;99.90;;;;;;5030966;28;20053;-62
2022/01/04 07:55:04;;;;;;;15.55;5.30;;;7.60;99.90;;;;;;5032362;28;20045;-62
2022/01/04 07:57:30;;;;;;;16.67;4.90;;;7.60;99.90;;;;;;5031317;28;20100;-61
2022/01/04 07:59:56;;;;;;;15.30;4.93;;;7.60;99.90;;;;;;5031856;28;20053;-62
2022/01/04 08:02:22;;;;;;;22.95;4.80;;;7.50;99.90;;;;;;5032098;28;20471;-62
2022/01/04 08:04:47;;;;;;;12.52;4.70;;;7.60;99.90;;;;;;5030764;28;20498;-61
2022/01/04 08:07:13;;;;;;;18.65;4.80;;;7.60;99.90;;;;;;5030844;28;20041;-62
2022/01/04 08:09:39;;;;;;;18.23;4.25;;;7.60;99.90;;;;;;5031531;28;20056;-61
2022/01/04 08:12:05;;;;;;;23.02;5.75;;;7.60;99.90;;;;;;5031950;28;20471;-61
2022/01/04 08:14:31;;;;;;;17.80;4.65;;;7.60;99.90;;;;;;5031765;28;20182;-61
2022/01/04 08:16:57;;;;;;;18.85;4.75;;;7.60;99.90;;;;;;5013752;28;20107;-63
2022/01/04 08:19:23;;;;;;;17.45;4.75;;;7.50;99.90;;;;;;5031685;28;20053;-62
2022/01/04 08:21:49;;;;;;;19.25;5.03;;;7.50;99.90;;;;;;5031402;28;20136;-61
2022/01/04 08:24:15;;;;;;;14.93;3.78;;;7.60;99.90;;;;;;5030506;28;20045;-60
2022/01/04 08:26:40;;;;;;;14.82;5.15;;;7.50;99.90;;;;;;5031557;28;20053;-61
2022/01/04 08:29:06;;;;;;;20.77;4.95;;;7.50;99.90;;;;;;5030912;28;20403;-61
2022/01/04 08:31:32;;;;;;;17.05;4.97;;;7.50;99.90;;;;;;5031979;28;20462;-61
2022/01/04 08:33:59;;;;;;;15.02;5.22;;;7.50;99.90;;;;;;5031259;28;20085;-62
2022/01/04 08:36:27;;;;;;;26.25;5.00;;;7.60;99.90;;;;;;5031911;28;20049;-62
2022/01/04 08:38:53;;;;;;;16.48;4.93;;;7.60;99.90;;;;;;5031483;28;20053;-63
2022/01/04 08:41:19;;;;;;;21.10;5.25;;;7.60;99.90;;;;;;5031802;28;20094;-61
2022/01/04 08:43:45;;;;;;;19.05;4.20;;;7.50;99.90;;;;;;4997527;28;20054;-61
2022/01/04 08:46:11;;;;;;;21.83;5.43;;;7.60;99.90;;;;;;5028488;28;20491;-61
2022/01/04 08:48:37;;;;;;;25.40;5.45;;;7.60;99.90;;;;;;5013128;28;20426;-62
2022/01/04 08:51:03;;;;;;;30.25;5.75;;;7.60;99.90;;;;;;5031120;28;20050;-62
2022/01/04 08:53:29;;;;;;;16.65;4.53;;;7.60;99.90;;;;;;5031233;28;20048;-62
2022/01/04 08:55:56;;;;;;;13.45;3.78;;;7.50;99.90;;;;;;5029642;28;20479;-63
2022/01/04 08:58:22;;;;;;;10.82;2.47;;;7.40;99.90;;;;;;5014022;28;20183;-62
2022/01/04 09:00:48;;;;;;;5.72;1.60;;;7.30;99.90;;;;;;5031111;28;20511;-63
2022/01/04 09:03:14;;;;;;;8.98;2.40;;;7.30;99.90;;;;;;5031522;28;20061;-63
2022/01/04 09:05:40;;;;;;;9.40;1.85;;;7.10;99.90;;;;;;5013785;28;20130;-63
2022/01/04 09:08:06;;;;;;;6.30;1.50;;;7.00;99.90;;;;;;5031083;28;20042;-63
2022/01/04 09:10:34;;;;;;;7.68;1.77;;;7.00;99.90;;;;;;5031310;28;20056;-63
2022/01/04 09:13:06;;;;;;;10.90;1.52;;;7.00;99.90;;;;;;5013917;28;20060;-63
2022/01/04 09:15:46;;;;;;;10.68;1.45;;;6.90;99.90;;;;;;5031187;28;20049;-63
2022/01/04 09:20:58;;;;;;;6.60;1.50;;;6.90;99.90;;;;;;5030904;28;20045;-63
2022/01/04 09:23:24;;;;;;;7.25;2.10;;;6.80;99.90;;;;;;5031140;28;20097;-62
2022/01/04 09:25:53;;;;;;;10.82;2.47;;;6.80;99.90;;;;;;5030610;28;20056;-63
2022/01/04 09:28:21;;;;;;;9.27;1.63;;;6.80;99.90;;;;;;5031153;28;20398;-63
2022/01/04 09:30:51;;;;;;;3.58;1.70;;;6.70;99.90;;;;;;5030609;28;20139;-63
2022/01/04 09:33:18;;;;;;;6.78;1.50;;;6.70;99.90;;;;;;5029828;28;20491;-64
2022/01/04 09:35:45;;;;;;;4.63;1.20;;;6.70;99.90;;;;;;5029815;28;20449;-65
2022/01/04 09:38:10;;;;;;;6.25;1.50;;;6.70;99.90;;;;;;4997036;28;20103;-62
2022/01/04 09:40:37;;;;;;;3.38;1.08;;;6.70;99.90;;;;;;5031003;28;20049;-63
2022/01/04 09:43:05;;;;;;;5.22;0.95;;;6.70;99.90;;;;;;5030662;28;20124;-63
2022/01/04 09:45:31;;;;;;;7.70;1.20;;;6.60;99.90;;;;;;5030698;28;20063;-62
2022/01/04 09:47:57;;;;;;;4.80;1.30;;;6.70;99.90;;;;;;5030614;28;20053;-61
2022/01/04 09:50:23;;;;;;;10.15;1.40;;;6.60;99.90;;;;;;5030642;28;20131;-61
2022/01/04 09:52:49;;;;;;;10.73;1.80;;;6.60;99.90;;;;;;5032734;28;20050;-62
2022/01/04 09:55:17;;;;;;;6.30;1.50;;;6.60;99.90;;;;;;5033167;28;20081;-61
2022/01/04 09:57:44;;;;;;;6.13;1.38;;;6.50;99.90;;;;;;5034104;28;20550;-61
2022/01/04 10:00:14;;;;;;;2.58;1.08;;;6.40;99.90;;;;;;5034179;28;20128;-62
2022/01/04 10:02:44;;;;;;;3.60;1.35;;;6.40;99.90;;;;;;5034492;28;20046;-62
2022/01/04 10:05:15;;;;;;;3.28;1.00;;;6.40;99.90;;;;;;5032784;28;20136;-62
2022/01/04 10:07:42;;;;;;;5.93;1.30;;;6.30;99.90;;;;;;5033923;28;20049;-61
2022/01/04 10:10:12;;;;;;;4.30;1.30;;;6.30;99.90;;;;;;5034083;28;20049;-62
2022/01/04 10:13:09;;;;;;;5.22;1.10;;;6.20;99.90;;;;;;5033207;28;20045;-61
2022/01/04 10:15:41;;;;;;;5.13;1.33;;;6.10;99.90;;;;;;5003163;28;20111;-62
2022/01/04 10:18:12;;;;;;;5.82;1.20;;;6.00;99.90;;;;;;5033922;28;20049;-61
2022/01/04 10:20:39;;;;;;;5.00;1.30;;;5.90;99.90;;;;;;5034284;28;20049;-62
2022/01/04 10:23:13;;;;;;;3.85;1.20;;;5.80;99.90;;;;;;5033787;28;20085;-62
2022/01/04 10:25:39;;;;;;;4.15;0.95;;;5.80;99.90;;;;;;5034340;28;20057;-63
2022/01/04 10:28:05;;;;;;;7.80;1.42;;;5.90;99.90;;;;;;5032315;28;20049;-61
2022/01/04 10:30:36;;;;;;;6.10;1.10;;;5.90;99.90;;;;;;5033710;28;20136;-61
2022/01/04 10:33:20;;;;;;;2.88;1.00;;;5.80;99.90;;;;;;5033750;28;20056;-61
2022/01/04 10:35:51;;;;;;;4.05;0.88;;;5.90;99.90;;;;;;5032804;28;20049;-62
2022/01/04 10:38:31;;;;;;;4.30;1.00;;;5.90;99.90;;;;;;5033586;28;20132;-60
2022/01/04 10:41:07;;;;;;;4.25;1.10;;;5.90;99.90;;;;;;5032093;28;20057;-61
2022/01/04 10:43:49;;;;;;;3.33;0.98;;;6.00;99.90;;;;;;5034205;28;20144;-62
2022/01/04 10:46:18;;;;;;;4.13;1.40;;;6.00;99.90;;;;;;5031904;28;20053;-62
2022/01/04 10:48:49;;;;;;;5.00;1.10;;;6.10;99.90;;;;;;5032239;28;20123;-63
2022/01/04 10:51:24;;;;;;;4.72;0.85;;;6.00;99.90;;;;;;5032428;28;20061;-62
2022/01/04 10:53:55;;;;;;;3.70;0.80;;;6.10;99.90;;;;;;5032531;28;20127;-62
2022/01/04 10:56:25;;;;;;;2.53;0.68;;;6.10;99.90;;;;;;5033685;28;20045;-62
2022/01/04 10:58:53;;;;;;;4.18;0.85;;;6.00;99.90;;;;;;5033530;28;20486;-63
2022/01/04 11:01:21;;;;;;;1.35;0.75;;;6.00;99.90;;;;;;5032913;28;20056;-62
2022/01/04 11:03:53;;;;;;;3.45;0.73;;;5.90;99.90;;;;;;5030865;28;20136;-62
2022/01/04 11:06:20;;;;;;;0.75;0.60;;;5.80;99.90;;;;;;5032951;28;20406;-65
2022/01/04 11:08:46;;;;;;;1.50;0.85;;;5.80;99.90;;;;;;5033042;28;20057;-63
2022/01/04 11:11:12;;;;;;;3.15;0.90;;;5.80;99.90;;;;;;5032865;28;20050;-62
2022/01/04 11:13:38;;;;;;;6.72;1.13;;;5.70;99.90;;;;;;5033197;28;20405;-62
2022/01/04 11:16:04;;;;;;;6.32;1.10;;;5.70;99.90;;;;;;5032953;28;20060;-62
2022/01/04 11:18:31;;;;;;;6.20;1.30;;;5.60;99.90;;;;;;5032027;28;20041;-62
2022/01/04 11:20:57;;;;;;;5.28;1.48;;;5.60;99.90;;;;;;5033212;28;20471;-61
2022/01/04 11:23:29;;;;;;;5.50;1.42;;;5.60;99.90;;;;;;5032783;28;20076;-61
2022/01/04 11:25:55;;;;;;;5.22;1.60;;;5.60;99.90;;;;;;5031866;28;20054;-62
2022/01/04 11:28:22;;;;;;;5.05;1.40;;;5.60;99.90;;;;;;5032827;28;20045;-62
2022/01/04 11:31:09;;;;;;;6.53;1.52;;;5.70;99.90;;;;;;5033290;28;20132;-61
2022/01/04 11:33:59;;;;;;;3.95;1.23;;;5.70;99.90;;;;;;5032834;28;20052;-62
2022/01/04 11:36:27;;;;;;;6.32;1.73;;;5.60;99.90;;;;;;5032738;28;20049;-61
2022/01/04 11:38:53;;;;;;;4.07;1.05;;;5.90;99.90;;;;;;5031558;28;20061;-61
2022/01/04 11:41:42;;;;;;;5.20;1.42;;;5.90;99.90;;;;;;5031102;28;20122;-61
2022/01/04 11:44:22;;;;;;;10.63;1.10;;;5.90;99.90;;;;;;5032261;28;20060;-62
2022/01/04 11:47:03;;;;;;;6.75;1.30;;;5.90;99.90;;;;;;5032278;28;20058;-62
2022/01/04 11:49:30;;;;;;;4.53;1.10;;;5.90;99.90;;;;;;5031659;28;20102;-61
2022/01/04 11:51:56;;;;;;;7.32;1.58;;;5.90;99.90;;;;;;5032645;28;20053;-62
2022/01/04 11:54:30;;;;;;;6.22;1.48;;;6.00;99.90;;;;;;5031857;28;20044;-62
2022/01/04 11:57:03;;;;;;;3.13;1.08;;;6.00;99.90;;;;;;5032503;28;20380;-61
2022/01/04 11:59:38;;;;;;;4.70;1.33;;;6.10;99.90;;;;;;5032527;28;20084;-61
2022/01/04 12:02:33;;;;;;;5.05;1.00;;;6.10;99.90;;;;;;5032405;28;20088;-65
2022/01/04 12:05:02;;;;;;;3.92;1.00;;;6.10;99.90;;;;;;5032216;28;20052;-61
2022/01/04 12:07:55;;;;;;;6.85;1.58;;;6.20;99.90;;;;;;5031773;28;20080;-62
2022/01/04 12:10:21;;;;;;;5.28;1.02;;;6.20;99.90;;;;;;5028247;28;20132;-61
2022/01/04 12:13:10;;;;;;;7.75;1.33;;;6.20;99.90;;;;;;5032204;28;20057;-60
2022/01/04 12:15:36;;;;;;;5.47;1.40;;;6.30;99.90;;;;;;5031613;28;20338;-61
2022/01/04 12:18:06;;;;;;;5.10;1.33;;;6.30;99.90;;;;;;5032168;28;20136;-61
2022/01/04 12:20:44;;;;;;;7.68;1.30;;;6.30;99.90;;;;;;5031652;28;20037;-61
2022/01/04 12:23:35;;;;;;;6.82;1.90;;;6.30;99.90;;;;;;5030292;28;20129;-60
2022/01/04 12:28:45;;;;;;;4.97;1.25;;;6.20;99.90;;;;;;5031323;28;20053;-62
2022/01/04 12:31:13;;;;;;;11.50;1.58;;;6.20;99.90;;;;;;5031305;28;20495;-62
2022/01/04 12:33:55;;;;;;;7.03;2.10;;;6.20;99.90;;;;;;5032078;28;20056;-63
2022/01/04 12:36:30;;;;;;;6.68;1.60;;;6.10;99.90;;;;;;5031791;28;20103;-62
2022/01/04 12:38:58;;;;;;;8.38;1.33;;;6.20;99.90;;;;;;5031924;28;20045;-61
2022/01/04 12:41:25;;;;;;;8.73;1.60;;;6.10;99.90;;;;;;5031171;28;20518;-61
2022/01/04 12:43:53;;;;;;;6.70;1.40;;;6.20;99.90;;;;;;5031763;28;20146;-62
2022/01/04 12:46:30;;;;;;;7.18;1.63;;;6.10;99.90;;;;;;5031014;28;20168;-61
2022/01/04 12:49:01;;;;;;;5.45;1.20;;;6.10;99.90;;;;;;5031699;28;20446;-61
2022/01/04 12:51:38;;;;;;;3.78;1.38;;;6.10;99.90;;;;;;5031440;28;20088;-62
2022/01/04 12:54:07;;;;;;;8.30;1.40;;;6.10;99.90;;;;;;5030618;28;20171;-62
2022/01/04 12:56:43;;;;;;;5.97;1.20;;;6.10;99.90;;;;;;5030937;28;20045;-62
2022/01/04 12:59:10;;;;;;;6.88;1.55;;;6.20;99.90;;;;;;5031289;28;20564;-62
2022/01/04 13:01:36;;;;;;;4.97;1.23;;;6.10;99.90;;;;;;5031599;28;20053;-61
2022/01/04 13:04:17;;;;;;;3.78;1.38;;;6.20;99.90;;;;;;5031378;28;20441;-61